Hai Jing — VRKA3 — position and weather

sailwx.info

Track history (hours):
 
Tides and Currents Weather Stations Pressure Air Temp Water Temp Dewpoint Dewpoint Depression Visibility Wind Speed Wind Dir Waves Ship Positions

Hai Jing

Last reported at 2018-Feb-06 02:15 UTC. Time now 2018-Feb-19 04:07 UTC.
Position N 35°58' W 005°36'.
Warning: this ship's position is 13 days out of date.

Length 225 m; draft 8.9 m.

Type: Cargo ship. MMSI: 477817800.

Date/timePositionNaut miles runAvg speedWind from/ knotsBaromVisibWave heightAir tempDewpointWater temp
2018-Feb-06 02:15N 35°58' W 005°36'2 9.7
2018-Feb-06 02:00N 35°59' W 005°33'9 8.6
2018-Feb-06 01:00N 36°03' W 005°24'4 7.5
2018-Feb-06 00:30N 36°07' W 005°22'3 0.2
2018-Feb-05 07:18N 36°04' W 005°20'3 6.1
2018-Feb-05 06:53N 36°03' W 005°17'2 5.3
2018-Feb-05 06:30N 36°03' W 005°15'  
2018-Feb-01 16:19N 36°44' E 013°28'411.5
2018-Feb-01 16:01N 36°43' E 013°32'811.6
2018-Feb-01 15:18N 36°41' E 013°42'311.9
2018-Feb-01 15:00N 36°40' E 013°46'1811.8
2018-Feb-01 13:30N 36°35' E 014°07'611.7
2018-Feb-01 13:01N 36°33' E 014°14'611.9
2018-Feb-01 12:30N 36°32' E 014°21'611.7
2018-Feb-01 12:00N 36°30' E 014°28'1211.4
2018-Feb-01 10:59N 36°29' E 014°43'9011.1
2018-Feb-01 02:54N 37°24' E 016°12'711.9
2018-Feb-01 02:20N 37°29' E 016°17'411.8
2018-Feb-01 01:58N 37°32' E 016°20'16112.1
2018-Jan-31 12:41N 39°37' E 018°31'712.4
2018-Jan-31 12:09N 39°43' E 018°35'212.3
2018-Jan-31 12:00N 39°44' E 018°36'612.1
2018-Jan-31 11:31N 39°50' E 018°39'612.4
2018-Jan-31 11:00N 39°56' E 018°40'612.4
2018-Jan-31 10:30N 40°02' E 018°40'1212.5
2018-Jan-31 09:35N 40°14' E 018°40'  
Track history (hours):
 
Tides and Currents Weather Stations Pressure Air Temp Water Temp Dewpoint Dewpoint Depression Visibility Wind Speed Wind Dir Waves Ship Positions

Hai Jing

Last reported at 2018-Feb-06 02:15 UTC. Time now 2018-Feb-19 04:07 UTC.
Position N 35°58' W 005°36'.
Warning: this ship's position is 13 days out of date.

Length 225 m; draft 8.9 m.

Type: Cargo ship. MMSI: 477817800.

Date/timePositionNaut miles runAvg speedWind from/ knotsBaromVisibWave heightAir tempDewpointWater temp
2018-Feb-06 02:15N 35°58' W 005°36'2 9.7
2018-Feb-06 02:00N 35°59' W 005°33'9 8.6
2018-Feb-06 01:00N 36°03' W 005°24'4 7.5
2018-Feb-06 00:30N 36°07' W 005°22'3 0.2
2018-Feb-05 07:18N 36°04' W 005°20'3 6.1
2018-Feb-05 06:53N 36°03' W 005°17'2 5.3
2018-Feb-05 06:30N 36°03' W 005°15'  
2018-Feb-01 16:19N 36°44' E 013°28'411.5
2018-Feb-01 16:01N 36°43' E 013°32'811.6
2018-Feb-01 15:18N 36°41' E 013°42'311.9
2018-Feb-01 15:00N 36°40' E 013°46'1811.8
2018-Feb-01 13:30N 36°35' E 014°07'611.7
2018-Feb-01 13:01N 36°33' E 014°14'611.9
2018-Feb-01 12:30N 36°32' E 014°21'611.7
2018-Feb-01 12:00N 36°30' E 014°28'1211.4
2018-Feb-01 10:59N 36°29' E 014°43'9011.1
2018-Feb-01 02:54N 37°24' E 016°12'711.9
2018-Feb-01 02:20N 37°29' E 016°17'411.8
2018-Feb-01 01:58N 37°32' E 016°20'16112.1
2018-Jan-31 12:41N 39°37' E 018°31'712.4
2018-Jan-31 12:09N 39°43' E 018°35'212.3
2018-Jan-31 12:00N 39°44' E 018°36'612.1
2018-Jan-31 11:31N 39°50' E 018°39'612.4
2018-Jan-31 11:00N 39°56' E 018°40'612.4
2018-Jan-31 10:30N 40°02' E 018°40'1212.5
2018-Jan-31 09:35N 40°14' E 018°40'  

Dump ship's entire track history